createdAt,value
2023-04-16T17:54:07.191Z,5.90
2023-04-16T17:59:11.224Z,5.50
2023-04-16T18:04:15.460Z,5.40
2023-04-16T18:09:21.050Z,4.90
2023-04-16T18:14:25.564Z,7.30
2023-04-16T18:19:31.192Z,5.00
2023-04-16T18:24:36.293Z,4.70
2023-04-16T18:29:46.874Z,4.70
2023-04-16T18:34:51.309Z,4.90
2023-04-16T18:39:58.029Z,4.90
2023-04-16T18:45:02.416Z,6.10
2023-04-16T18:50:21.393Z,5.30
2023-04-16T18:55:29.765Z,6.40
2023-04-16T19:00:33.771Z,5.40
2023-04-16T19:05:44.387Z,5.20
2023-04-16T19:10:59.988Z,5.20
2023-04-16T19:16:19.632Z,6.70
2023-04-16T19:21:25.655Z,5.10
2023-04-16T19:26:32.407Z,4.60
2023-04-16T19:31:36.805Z,4.50
2023-04-16T19:36:40.677Z,5.30
2023-04-16T19:41:44.814Z,5.10
2023-04-16T19:46:49.282Z,5.00
2023-04-16T19:51:54.289Z,4.50
2023-04-16T19:56:59.386Z,4.00
2023-04-16T20:02:03.242Z,5.00
2023-04-16T20:07:07.212Z,4.70
2023-04-16T20:12:11.168Z,5.20
2023-04-16T20:17:18.940Z,4.80
2023-04-16T20:22:22.707Z,4.50
2023-04-16T20:27:31.191Z,4.60
2023-04-16T20:32:34.894Z,5.40
2023-04-16T20:37:42.974Z,6.70
2023-04-16T20:42:47.314Z,5.40
2023-04-16T20:47:52.020Z,7.00
2023-04-16T20:52:58.458Z,6.60
2023-04-16T20:58:02.902Z,6.20
2023-04-16T21:03:07.089Z,7.60
2023-04-16T21:08:15.355Z,6.90
2023-04-16T21:13:21.150Z,7.00
2023-04-16T21:18:24.733Z,7.40
2023-04-16T21:23:28.466Z,7.70
2023-04-16T21:28:32.390Z,8.60
2023-04-16T21:33:36.233Z,9.00
2023-04-16T21:38:40.284Z,8.80
2023-04-16T21:43:44.063Z,8.40
2023-04-16T21:48:51.100Z,10.10
2023-04-16T21:53:55.315Z,10.10
2023-04-16T21:58:59.085Z,9.70
2023-04-16T22:04:03.330Z,9.80
2023-04-16T22:09:07.453Z,11.10
2023-04-16T22:14:11.421Z,10.60
2023-04-16T22:19:15.183Z,11.00
2023-04-16T22:24:19.052Z,12.10
2023-04-16T22:29:22.725Z,11.30
2023-04-16T22:34:26.747Z,11.90
2023-04-16T22:39:31.078Z,12.40
2023-04-16T22:44:35.796Z,11.90
2023-04-16T22:49:39.414Z,11.90
2023-04-16T22:54:44.530Z,18.70
2023-04-16T22:59:48.224Z,13.20
2023-04-16T23:04:52.030Z,12.60
2023-04-16T23:09:55.769Z,13.00
2023-04-16T23:15:00.317Z,11.50
2023-04-16T23:20:06.927Z,12.40
2023-04-16T23:25:11.155Z,12.20
2023-04-16T23:30:15.522Z,12.10
2023-04-16T23:35:39.173Z,11.90
2023-04-16T23:40:42.869Z,11.20
2023-04-16T23:45:46.684Z,11.10
2023-04-16T23:50:50.331Z,10.60
2023-04-16T23:55:54.183Z,10.40
